sensor_id;sensor_type;location;lat;lon;timestamp;P1;durP1;ratioP1;P2;durP2;ratioP2
80584;SDS011;70137;56.482;9.154;2024-02-26T00:01:52;20.63;;;12.52;;
80584;SDS011;70137;56.482;9.154;2024-02-26T00:04:17;19.73;;;12.95;;
80584;SDS011;70137;56.482;9.154;2024-02-26T00:06:42;22.25;;;13.50;;
80584;SDS011;70137;56.482;9.154;2024-02-26T00:09:08;20.77;;;13.07;;
80584;SDS011;70137;56.482;9.154;2024-02-26T00:11:37;20.63;;;12.98;;
80584;SDS011;70137;56.482;9.154;2024-02-26T00:14:03;19.98;;;13.18;;
80584;SDS011;70137;56.482;9.154;2024-02-26T00:16:28;21.80;;;13.00;;
80584;SDS011;70137;56.482;9.154;2024-02-26T00:18:54;21.70;;;13.30;;
80584;SDS011;70137;56.482;9.154;2024-02-26T00:21:19;22.52;;;13.57;;
80584;SDS011;70137;56.482;9.154;2024-02-26T00:23:45;21.85;;;13.82;;
80584;SDS011;70137;56.482;9.154;2024-02-26T00:26:10;25.08;;;13.57;;
80584;SDS011;70137;56.482;9.154;2024-02-26T00:28:36;22.13;;;12.73;;
80584;SDS011;70137;56.482;9.154;2024-02-26T00:31:01;19.95;;;12.20;;
80584;SDS011;70137;56.482;9.154;2024-02-26T00:33:27;20.08;;;13.05;;
80584;SDS011;70137;56.482;9.154;2024-02-26T00:35:53;21.80;;;13.38;;
80584;SDS011;70137;56.482;9.154;2024-02-26T00:38:18;19.27;;;13.05;;
80584;SDS011;70137;56.482;9.154;2024-02-26T00:40:44;25.10;;;13.63;;
80584;SDS011;70137;56.482;9.154;2024-02-26T00:43:09;23.05;;;13.68;;
80584;SDS011;70137;56.482;9.154;2024-02-26T00:45:34;22.13;;;13.57;;
80584;SDS011;70137;56.482;9.154;2024-02-26T00:48:00;25.13;;;14.27;;
80584;SDS011;70137;56.482;9.154;2024-02-26T00:50:32;21.98;;;12.88;;
80584;SDS011;70137;56.482;9.154;2024-02-26T00:52:58;19.58;;;12.52;;
80584;SDS011;70137;56.482;9.154;2024-02-26T00:55:24;22.38;;;12.75;;
80584;SDS011;70137;56.482;9.154;2024-02-26T00:57:49;19.45;;;12.18;;
80584;SDS011;70137;56.482;9.154;2024-02-26T01:00:15;19.45;;;12.23;;
80584;SDS011;70137;56.482;9.154;2024-02-26T01:02:41;20.10;;;12.43;;
80584;SDS011;70137;56.482;9.154;2024-02-26T01:05:11;18.40;;;11.13;;
80584;SDS011;70137;56.482;9.154;2024-02-26T01:07:37;20.75;;;12.23;;
80584;SDS011;70137;56.482;9.154;2024-02-26T01:10:04;19.35;;;11.82;;
80584;SDS011;70137;56.482;9.154;2024-02-26T01:12:31;19.52;;;12.68;;
80584;SDS011;70137;56.482;9.154;2024-02-26T01:14:57;19.02;;;11.68;;
80584;SDS011;70137;56.482;9.154;2024-02-26T01:17:23;18.45;;;11.13;;
80584;SDS011;70137;56.482;9.154;2024-02-26T01:19:48;21.48;;;11.80;;
80584;SDS011;70137;56.482;9.154;2024-02-26T01:22:13;20.30;;;11.55;;
80584;SDS011;70137;56.482;9.154;2024-02-26T01:24:39;19.65;;;11.38;;
80584;SDS011;70137;56.482;9.154;2024-02-26T01:27:04;20.95;;;11.27;;
80584;SDS011;70137;56.482;9.154;2024-02-26T01:29:29;16.88;;;10.90;;
80584;SDS011;70137;56.482;9.154;2024-02-26T01:31:55;19.63;;;11.27;;
80584;SDS011;70137;56.482;9.154;2024-02-26T01:34:21;16.38;;;10.73;;
80584;SDS011;70137;56.482;9.154;2024-02-26T01:36:46;18.83;;;11.00;;
80584;SDS011;70137;56.482;9.154;2024-02-26T01:39:12;18.10;;;10.70;;
80584;SDS011;70137;56.482;9.154;2024-02-26T01:41:38;17.08;;;10.77;;
80584;SDS011;70137;56.482;9.154;2024-02-26T01:44:04;16.77;;;10.80;;
80584;SDS011;70137;56.482;9.154;2024-02-26T01:46:30;16.30;;;9.90;;
80584;SDS011;70137;56.482;9.154;2024-02-26T01:48:58;15.48;;;9.45;;
80584;SDS011;70137;56.482;9.154;2024-02-26T01:51:24;18.52;;;10.70;;
80584;SDS011;70137;56.482;9.154;2024-02-26T01:53:49;16.45;;;10.30;;
80584;SDS011;70137;56.482;9.154;2024-02-26T01:56:15;16.83;;;10.55;;
80584;SDS011;70137;56.482;9.154;2024-02-26T01:58:43;16.27;;;9.57;;
80584;SDS011;70137;56.482;9.154;2024-02-26T02:01:09;16.15;;;9.82;;
80584;SDS011;70137;56.482;9.154;2024-02-26T02:03:34;14.77;;;9.43;;
80584;SDS011;70137;56.482;9.154;2024-02-26T02:06:01;14.38;;;9.02;;
80584;SDS011;70137;56.482;9.154;2024-02-26T02:08:28;16.13;;;8.98;;
80584;SDS011;70137;56.482;9.154;2024-02-26T02:10:53;20.30;;;9.38;;
80584;SDS011;70137;56.482;9.154;2024-02-26T02:13:19;14.02;;;8.98;;
80584;SDS011;70137;56.482;9.154;2024-02-26T02:15:44;12.32;;;8.60;;
80584;SDS011;70137;56.482;9.154;2024-02-26T02:18:09;15.50;;;8.25;;
80584;SDS011;70137;56.482;9.154;2024-02-26T02:20:35;14.00;;;8.80;;
80584;SDS011;70137;56.482;9.154;2024-02-26T02:23:01;14.27;;;8.73;;
80584;SDS011;70137;56.482;9.154;2024-02-26T02:25:27;15.73;;;9.23;;
80584;SDS011;70137;56.482;9.154;2024-02-26T02:27:53;17.38;;;11.00;;
80584;SDS011;70137;56.482;9.154;2024-02-26T02:30:21;17.08;;;10.05;;
80584;SDS011;70137;56.482;9.154;2024-02-26T02:32:49;17.83;;;10.48;;
80584;SDS011;70137;56.482;9.154;2024-02-26T02:35:14;16.35;;;9.80;;
80584;SDS011;70137;56.482;9.154;2024-02-26T02:37:39;17.05;;;10.05;;
80584;SDS011;70137;56.482;9.154;2024-02-26T02:40:05;13.88;;;8.55;;
80584;SDS011;70137;56.482;9.154;2024-02-26T02:42:31;14.45;;;9.15;;
80584;SDS011;70137;56.482;9.154;2024-02-26T02:44:57;13.30;;;8.77;;
80584;SDS011;70137;56.482;9.154;2024-02-26T02:47:22;13.15;;;8.32;;
80584;SDS011;70137;56.482;9.154;2024-02-26T02:49:47;13.85;;;8.93;;
80584;SDS011;70137;56.482;9.154;2024-02-26T02:52:13;14.68;;;8.18;;
80584;SDS011;70137;56.482;9.154;2024-02-26T02:54:38;16.10;;;9.15;;
80584;SDS011;70137;56.482;9.154;2024-02-26T02:57:06;16.13;;;8.75;;
80584;SDS011;70137;56.482;9.154;2024-02-26T02:59:32;13.20;;;7.82;;
80584;SDS011;70137;56.482;9.154;2024-02-26T03:01:57;14.32;;;8.57;;
80584;SDS011;70137;56.482;9.154;2024-02-26T03:04:23;13.18;;;7.90;;
80584;SDS011;70137;56.482;9.154;2024-02-26T03:06:48;15.48;;;9.32;;
80584;SDS011;70137;56.482;9.154;2024-02-26T03:09:14;15.20;;;8.73;;
80584;SDS011;70137;56.482;9.154;2024-02-26T03:11:39;14.65;;;8.50;;
80584;SDS011;70137;56.482;9.154;2024-02-26T03:14:05;19.23;;;9.75;;
80584;SDS011;70137;56.482;9.154;2024-02-26T03:16:31;16.48;;;8.95;;
80584;SDS011;70137;56.482;9.154;2024-02-26T03:18:57;16.30;;;8.90;;
80584;SDS011;70137;56.482;9.154;2024-02-26T03:21:23;12.77;;;7.88;;
80584;SDS011;70137;56.482;9.154;2024-02-26T03:23:50;15.07;;;9.15;;
80584;SDS011;70137;56.482;9.154;2024-02-26T03:26:15;13.50;;;7.80;;
80584;SDS011;70137;56.482;9.154;2024-02-26T03:28:41;12.40;;;7.43;;
80584;SDS011;70137;56.482;9.154;2024-02-26T03:31:06;13.65;;;8.18;;
80584;SDS011;70137;56.482;9.154;2024-02-26T03:33:31;13.88;;;8.27;;
80584;SDS011;70137;56.482;9.154;2024-02-26T03:35:57;13.65;;;8.38;;
80584;SDS011;70137;56.482;9.154;2024-02-26T03:38:22;12.40;;;7.70;;
80584;SDS011;70137;56.482;9.154;2024-02-26T03:40:47;12.20;;;7.65;;
80584;SDS011;70137;56.482;9.154;2024-02-26T03:43:13;12.15;;;7.82;;
80584;SDS011;70137;56.482;9.154;2024-02-26T03:45:39;11.90;;;7.32;;
80584;SDS011;70137;56.482;9.154;2024-02-26T03:48:05;12.60;;;7.75;;
80584;SDS011;70137;56.482;9.154;2024-02-26T03:50:30;14.55;;;7.53;;
80584;SDS011;70137;56.482;9.154;2024-02-26T03:52:56;12.15;;;6.63;;
80584;SDS011;70137;56.482;9.154;2024-02-26T03:55:22;11.20;;;7.15;;
80584;SDS011;70137;56.482;9.154;2024-02-26T03:57:50;11.18;;;6.82;;
80584;SDS011;70137;56.482;9.154;2024-02-26T04:00:16;9.00;;;5.72;;
80584;SDS011;70137;56.482;9.154;2024-02-26T04:02:43;10.02;;;5.72;;
80584;SDS011;70137;56.482;9.154;2024-02-26T04:05:09;8.82;;;5.53;;
80584;SDS011;70137;56.482;9.154;2024-02-26T04:07:35;9.82;;;4.85;;
80584;SDS011;70137;56.482;9.154;2024-02-26T04:10:00;7.97;;;5.10;;
80584;SDS011;70137;56.482;9.154;2024-02-26T04:12:28;9.90;;;5.57;;
80584;SDS011;70137;56.482;9.154;2024-02-26T04:14:54;8.40;;;5.25;;
80584;SDS011;70137;56.482;9.154;2024-02-26T04:17:19;6.90;;;4.75;;
80584;SDS011;70137;56.482;9.154;2024-02-26T04:19:45;7.20;;;4.10;;
80584;SDS011;70137;56.482;9.154;2024-02-26T04:22:10;9.10;;;4.53;;
80584;SDS011;70137;56.482;9.154;2024-02-26T04:24:36;7.07;;;4.70;;
80584;SDS011;70137;56.482;9.154;2024-02-26T04:27:01;7.07;;;5.05;;
80584;SDS011;70137;56.482;9.154;2024-02-26T04:29:26;7.20;;;4.43;;
80584;SDS011;70137;56.482;9.154;2024-02-26T04:31:52;7.43;;;4.30;;
80584;SDS011;70137;56.482;9.154;2024-02-26T04:34:17;9.90;;;5.00;;
80584;SDS011;70137;56.482;9.154;2024-02-26T04:36:43;7.45;;;4.32;;
80584;SDS011;70137;56.482;9.154;2024-02-26T04:39:09;8.13;;;4.35;;
80584;SDS011;70137;56.482;9.154;2024-02-26T04:41:35;7.75;;;3.75;;
80584;SDS011;70137;56.482;9.154;2024-02-26T04:44:00;5.93;;;4.10;;
80584;SDS011;70137;56.482;9.154;2024-02-26T04:46:26;10.52;;;4.40;;
80584;SDS011;70137;56.482;9.154;2024-02-26T04:48:53;9.15;;;4.72;;
80584;SDS011;70137;56.482;9.154;2024-02-26T04:51:18;7.88;;;4.38;;
80584;SDS011;70137;56.482;9.154;2024-02-26T04:53:44;12.68;;;4.28;;
80584;SDS011;70137;56.482;9.154;2024-02-26T04:56:09;6.35;;;4.20;;
80584;SDS011;70137;56.482;9.154;2024-02-26T04:58:35;6.45;;;3.85;;
80584;SDS011;70137;56.482;9.154;2024-02-26T05:01:00;6.05;;;4.03;;
80584;SDS011;70137;56.482;9.154;2024-02-26T05:03:26;8.18;;;3.72;;
80584;SDS011;70137;56.482;9.154;2024-02-26T05:05:51;7.45;;;3.95;;
80584;SDS011;70137;56.482;9.154;2024-02-26T05:08:16;7.78;;;3.60;;
80584;SDS011;70137;56.482;9.154;2024-02-26T05:10:42;9.23;;;3.60;;
80584;SDS011;70137;56.482;9.154;2024-02-26T05:13:08;5.70;;;3.70;;
80584;SDS011;70137;56.482;9.154;2024-02-26T05:15:33;5.20;;;3.33;;
80584;SDS011;70137;56.482;9.154;2024-02-26T05:17:59;6.30;;;4.20;;
80584;SDS011;70137;56.482;9.154;2024-02-26T05:20:25;7.10;;;3.42;;
80584;SDS011;70137;56.482;9.154;2024-02-26T05:22:50;5.82;;;3.78;;
80584;SDS011;70137;56.482;9.154;2024-02-26T05:25:17;6.80;;;3.53;;
80584;SDS011;70137;56.482;9.154;2024-02-26T05:27:42;7.32;;;3.58;;
80584;SDS011;70137;56.482;9.154;2024-02-26T05:30:09;6.22;;;4.00;;
80584;SDS011;70137;56.482;9.154;2024-02-26T05:32:35;7.90;;;3.40;;
80584;SDS011;70137;56.482;9.154;2024-02-26T05:35:00;4.93;;;3.50;;
80584;SDS011;70137;56.482;9.154;2024-02-26T05:37:28;6.85;;;3.67;;
80584;SDS011;70137;56.482;9.154;2024-02-26T05:39:53;5.07;;;3.47;;
80584;SDS011;70137;56.482;9.154;2024-02-26T05:42:18;5.30;;;3.10;;
80584;SDS011;70137;56.482;9.154;2024-02-26T05:44:44;5.15;;;3.63;;
80584;SDS011;70137;56.482;9.154;2024-02-26T05:47:09;6.10;;;3.30;;
80584;SDS011;70137;56.482;9.154;2024-02-26T05:49:34;5.95;;;3.60;;
80584;SDS011;70137;56.482;9.154;2024-02-26T05:52:00;6.30;;;3.60;;
80584;SDS011;70137;56.482;9.154;2024-02-26T05:54:25;7.00;;;3.65;;
80584;SDS011;70137;56.482;9.154;2024-02-26T05:56:51;6.43;;;3.30;;
80584;SDS011;70137;56.482;9.154;2024-02-26T05:59:16;6.60;;;3.83;;
80584;SDS011;70137;56.482;9.154;2024-02-26T06:01:42;4.28;;;2.88;;
80584;SDS011;70137;56.482;9.154;2024-02-26T06:04:07;5.40;;;3.60;;
80584;SDS011;70137;56.482;9.154;2024-02-26T06:06:33;5.25;;;3.40;;
80584;SDS011;70137;56.482;9.154;2024-02-26T06:08:58;4.82;;;3.20;;
80584;SDS011;70137;56.482;9.154;2024-02-26T06:11:24;5.63;;;3.53;;
80584;SDS011;70137;56.482;9.154;2024-02-26T06:13:49;4.82;;;3.38;;
80584;SDS011;70137;56.482;9.154;2024-02-26T06:16:14;6.38;;;3.55;;
80584;SDS011;70137;56.482;9.154;2024-02-26T06:18:40;7.60;;;3.70;;
80584;SDS011;70137;56.482;9.154;2024-02-26T06:21:09;7.00;;;3.92;;
80584;SDS011;70137;56.482;9.154;2024-02-26T06:23:35;7.22;;;3.72;;
80584;SDS011;70137;56.482;9.154;2024-02-26T06:26:01;6.88;;;4.30;;
80584;SDS011;70137;56.482;9.154;2024-02-26T06:28:26;5.95;;;3.97;;
80584;SDS011;70137;56.482;9.154;2024-02-26T06:30:52;5.82;;;3.85;;
80584;SDS011;70137;56.482;9.154;2024-02-26T06:33:18;6.90;;;4.65;;
80584;SDS011;70137;56.482;9.154;2024-02-26T06:35:43;6.55;;;4.13;;
80584;SDS011;70137;56.482;9.154;2024-02-26T06:38:09;7.57;;;4.78;;
80584;SDS011;70137;56.482;9.154;2024-02-26T06:40:36;6.85;;;4.13;;
80584;SDS011;70137;56.482;9.154;2024-02-26T06:43:02;6.88;;;4.70;;
80584;SDS011;70137;56.482;9.154;2024-02-26T06:45:27;7.88;;;4.30;;
80584;SDS011;70137;56.482;9.154;2024-02-26T06:47:52;8.38;;;4.15;;
80584;SDS011;70137;56.482;9.154;2024-02-26T06:50:18;6.45;;;4.30;;
80584;SDS011;70137;56.482;9.154;2024-02-26T06:52:44;6.07;;;4.50;;
80584;SDS011;70137;56.482;9.154;2024-02-26T06:55:10;8.07;;;4.50;;
80584;SDS011;70137;56.482;9.154;2024-02-26T06:57:36;7.75;;;4.05;;
80584;SDS011;70137;56.482;9.154;2024-02-26T07:00:01;7.45;;;4.65;;
80584;SDS011;70137;56.482;9.154;2024-02-26T07:02:28;9.90;;;5.18;;
80584;SDS011;70137;56.482;9.154;2024-02-26T07:04:54;9.77;;;5.05;;
80584;SDS011;70137;56.482;9.154;2024-02-26T07:07:21;8.13;;;5.07;;
80584;SDS011;70137;56.482;9.154;2024-02-26T07:09:47;8.90;;;5.18;;
80584;SDS011;70137;56.482;9.154;2024-02-26T07:12:13;7.32;;;4.68;;
80584;SDS011;70137;56.482;9.154;2024-02-26T07:14:39;6.88;;;4.30;;
80584;SDS011;70137;56.482;9.154;2024-02-26T07:17:04;6.75;;;4.40;;
80584;SDS011;70137;56.482;9.154;2024-02-26T07:19:29;7.68;;;4.55;;
80584;SDS011;70137;56.482;9.154;2024-02-26T07:21:55;7.78;;;4.38;;
80584;SDS011;70137;56.482;9.154;2024-02-26T07:24:20;6.90;;;4.20;;
80584;SDS011;70137;56.482;9.154;2024-02-26T07:26:46;7.88;;;4.65;;
80584;SDS011;70137;56.482;9.154;2024-02-26T07:29:11;8.13;;;3.83;;
80584;SDS011;70137;56.482;9.154;2024-02-26T07:31:37;6.72;;;4.15;;
80584;SDS011;70137;56.482;9.154;2024-02-26T07:34:02;8.25;;;4.03;;
80584;SDS011;70137;56.482;9.154;2024-02-26T07:36:27;9.55;;;4.68;;
80584;SDS011;70137;56.482;9.154;2024-02-26T07:38:53;9.55;;;4.32;;
80584;SDS011;70137;56.482;9.154;2024-02-26T07:41:19;7.65;;;4.55;;
80584;SDS011;70137;56.482;9.154;2024-02-26T07:43:45;9.52;;;4.85;;
80584;SDS011;70137;56.482;9.154;2024-02-26T07:46:13;9.93;;;4.40;;
80584;SDS011;70137;56.482;9.154;2024-02-26T07:48:39;5.90;;;3.92;;
80584;SDS011;70137;56.482;9.154;2024-02-26T07:51:04;8.93;;;4.32;;
80584;SDS011;70137;56.482;9.154;2024-02-26T07:53:30;6.72;;;3.67;;
80584;SDS011;70137;56.482;9.154;2024-02-26T07:55:55;5.22;;;3.72;;
80584;SDS011;70137;56.482;9.154;2024-02-26T07:58:21;7.88;;;3.63;;
80584;SDS011;70137;56.482;9.154;2024-02-26T08:00:48;7.63;;;4.22;;
80584;SDS011;70137;56.482;9.154;2024-02-26T08:03:14;8.27;;;4.05;;
80584;SDS011;70137;56.482;9.154;2024-02-26T08:05:40;7.70;;;4.07;;
80584;SDS011;70137;56.482;9.154;2024-02-26T08:08:07;5.40;;;3.95;;
80584;SDS011;70137;56.482;9.154;2024-02-26T08:10:33;5.78;;;3.85;;
80584;SDS011;70137;56.482;9.154;2024-02-26T08:12:58;6.68;;;4.15;;
80584;SDS011;70137;56.482;9.154;2024-02-26T08:15:30;7.38;;;4.53;;
80584;SDS011;70137;56.482;9.154;2024-02-26T08:17:56;7.10;;;4.22;;
80584;SDS011;70137;56.482;9.154;2024-02-26T08:20:21;7.63;;;4.53;;
80584;SDS011;70137;56.482;9.154;2024-02-26T08:22:46;7.72;;;4.55;;
80584;SDS011;70137;56.482;9.154;2024-02-26T08:25:12;6.72;;;4.05;;
80584;SDS011;70137;56.482;9.154;2024-02-26T08:27:37;5.75;;;4.10;;
80584;SDS011;70137;56.482;9.154;2024-02-26T08:30:03;5.47;;;4.32;;
80584;SDS011;70137;56.482;9.154;2024-02-26T08:32:28;5.15;;;4.13;;
80584;SDS011;70137;56.482;9.154;2024-02-26T08:34:54;6.15;;;4.28;;
80584;SDS011;70137;56.482;9.154;2024-02-26T08:37:19;7.10;;;4.45;;
80584;SDS011;70137;56.482;9.154;2024-02-26T08:39:44;5.50;;;4.25;;
80584;SDS011;70137;56.482;9.154;2024-02-26T08:42:10;5.00;;;4.18;;
80584;SDS011;70137;56.482;9.154;2024-02-26T08:44:36;8.02;;;4.93;;
80584;SDS011;70137;56.482;9.154;2024-02-26T08:47:01;7.97;;;4.88;;
80584;SDS011;70137;56.482;9.154;2024-02-26T08:49:28;9.32;;;5.38;;
80584;SDS011;70137;56.482;9.154;2024-02-26T08:51:54;9.57;;;5.18;;
80584;SDS011;70137;56.482;9.154;2024-02-26T08:54:19;11.52;;;4.60;;
80584;SDS011;70137;56.482;9.154;2024-02-26T08:56:44;6.15;;;4.10;;
80584;SDS011;70137;56.482;9.154;2024-02-26T08:59:10;9.00;;;3.60;;
80584;SDS011;70137;56.482;9.154;2024-02-26T09:01:35;4.18;;;3.50;;
80584;SDS011;70137;56.482;9.154;2024-02-26T09:04:00;5.50;;;3.38;;
80584;SDS011;70137;56.482;9.154;2024-02-26T09:06:26;4.07;;;3.10;;
80584;SDS011;70137;56.482;9.154;2024-02-26T09:08:51;6.82;;;2.95;;
80584;SDS011;70137;56.482;9.154;2024-02-26T09:11:17;5.55;;;3.50;;
80584;SDS011;70137;56.482;9.154;2024-02-26T09:13:42;4.80;;;3.33;;
80584;SDS011;70137;56.482;9.154;2024-02-26T09:16:07;8.82;;;3.60;;
80584;SDS011;70137;56.482;9.154;2024-02-26T09:18:33;4.97;;;3.30;;
80584;SDS011;70137;56.482;9.154;2024-02-26T09:20:58;4.53;;;3.28;;
80584;SDS011;70137;56.482;9.154;2024-02-26T09:23:24;5.93;;;3.42;;
80584;SDS011;70137;56.482;9.154;2024-02-26T09:25:49;8.68;;;4.18;;
80584;SDS011;70137;56.482;9.154;2024-02-26T09:28:15;4.38;;;3.00;;
80584;SDS011;70137;56.482;9.154;2024-02-26T09:30:43;5.13;;;3.55;;
80584;SDS011;70137;56.482;9.154;2024-02-26T09:33:09;6.28;;;3.17;;
80584;SDS011;70137;56.482;9.154;2024-02-26T09:35:34;5.05;;;2.88;;
80584;SDS011;70137;56.482;9.154;2024-02-26T09:38:00;2.72;;;2.47;;
80584;SDS011;70137;56.482;9.154;2024-02-26T09:40:25;4.60;;;2.55;;
80584;SDS011;70137;56.482;9.154;2024-02-26T09:42:53;3.13;;;2.60;;
80584;SDS011;70137;56.482;9.154;2024-02-26T09:45:25;2.90;;;2.55;;
80584;SDS011;70137;56.482;9.154;2024-02-26T09:47:52;4.43;;;2.97;;
80584;SDS011;70137;56.482;9.154;2024-02-26T09:50:20;3.50;;;2.38;;
80584;SDS011;70137;56.482;9.154;2024-02-26T09:52:47;4.32;;;2.50;;
80584;SDS011;70137;56.482;9.154;2024-02-26T09:55:14;4.05;;;2.33;;
80584;SDS011;70137;56.482;9.154;2024-02-26T09:57:42;2.70;;;1.90;;
80584;SDS011;70137;56.482;9.154;2024-02-26T10:00:14;5.65;;;2.40;;
80584;SDS011;70137;56.482;9.154;2024-02-26T10:02:43;3.42;;;2.25;;
80584;SDS011;70137;56.482;9.154;2024-02-26T10:05:10;2.97;;;2.00;;
80584;SDS011;70137;56.482;9.154;2024-02-26T10:07:39;2.65;;;1.70;;
80584;SDS011;70137;56.482;9.154;2024-02-26T10:10:05;4.93;;;1.88;;
80584;SDS011;70137;56.482;9.154;2024-02-26T10:12:31;4.30;;;2.40;;
80584;SDS011;70137;56.482;9.154;2024-02-26T10:14:57;4.35;;;2.13;;
80584;SDS011;70137;56.482;9.154;2024-02-26T10:17:23;3.60;;;1.95;;
80584;SDS011;70137;56.482;9.154;2024-02-26T10:19:49;4.53;;;2.90;;
80584;SDS011;70137;56.482;9.154;2024-02-26T10:22:16;6.85;;;2.58;;
80584;SDS011;70137;56.482;9.154;2024-02-26T10:24:42;4.85;;;2.35;;
80584;SDS011;70137;56.482;9.154;2024-02-26T10:27:07;3.25;;;2.20;;
80584;SDS011;70137;56.482;9.154;2024-02-26T10:29:34;3.03;;;2.00;;
80584;SDS011;70137;56.482;9.154;2024-02-26T10:31:59;3.58;;;1.80;;
80584;SDS011;70137;56.482;9.154;2024-02-26T10:34:25;4.88;;;1.77;;
80584;SDS011;70137;56.482;9.154;2024-02-26T10:36:51;3.95;;;1.83;;
80584;SDS011;70137;56.482;9.154;2024-02-26T10:39:16;2.78;;;1.83;;
80584;SDS011;70137;56.482;9.154;2024-02-26T10:41:43;4.32;;;2.10;;
80584;SDS011;70137;56.482;9.154;2024-02-26T10:44:10;4.75;;;1.80;;
80584;SDS011;70137;56.482;9.154;2024-02-26T10:46:37;2.63;;;1.80;;
80584;SDS011;70137;56.482;9.154;2024-02-26T10:49:03;3.88;;;1.88;;
80584;SDS011;70137;56.482;9.154;2024-02-26T10:51:29;4.78;;;2.03;;
80584;SDS011;70137;56.482;9.154;2024-02-26T10:53:56;2.15;;;1.10;;
80584;SDS011;70137;56.482;9.154;2024-02-26T10:56:26;2.95;;;1.25;;
80584;SDS011;70137;56.482;9.154;2024-02-26T10:58:55;3.20;;;1.40;;
80584;SDS011;70137;56.482;9.154;2024-02-26T11:01:21;1.88;;;1.20;;
80584;SDS011;70137;56.482;9.154;2024-02-26T11:03:55;1.92;;;1.20;;
80584;SDS011;70137;56.482;9.154;2024-02-26T11:06:21;4.53;;;1.48;;
80584;SDS011;70137;56.482;9.154;2024-02-26T11:08:47;2.05;;;1.13;;
80584;SDS011;70137;56.482;9.154;2024-02-26T11:11:14;2.85;;;1.25;;
80584;SDS011;70137;56.482;9.154;2024-02-26T11:13:42;1.83;;;1.25;;
80584;SDS011;70137;56.482;9.154;2024-02-26T11:16:15;2.67;;;1.45;;
80584;SDS011;70137;56.482;9.154;2024-02-26T11:18:43;1.67;;;1.20;;
80584;SDS011;70137;56.482;9.154;2024-02-26T11:21:13;4.50;;;1.60;;
80584;SDS011;70137;56.482;9.154;2024-02-26T11:23:40;7.70;;;2.40;;
80584;SDS011;70137;56.482;9.154;2024-02-26T11:26:06;4.45;;;1.80;;
80584;SDS011;70137;56.482;9.154;2024-02-26T11:28:34;3.38;;;1.70;;
80584;SDS011;70137;56.482;9.154;2024-02-26T11:31:00;3.60;;;1.88;;
80584;SDS011;70137;56.482;9.154;2024-02-26T11:33:28;1.55;;;1.40;;
80584;SDS011;70137;56.482;9.154;2024-02-26T11:35:54;2.17;;;1.75;;
80584;SDS011;70137;56.482;9.154;2024-02-26T11:38:20;5.28;;;2.15;;
80584;SDS011;70137;56.482;9.154;2024-02-26T11:40:47;2.97;;;1.98;;
80584;SDS011;70137;56.482;9.154;2024-02-26T11:43:12;2.67;;;1.90;;
80584;SDS011;70137;56.482;9.154;2024-02-26T11:48:04;3.97;;;2.10;;
80584;SDS011;70137;56.482;9.154;2024-02-26T11:50:36;7.78;;;2.28;;
80584;SDS011;70137;56.482;9.154;2024-02-26T11:59:03;2.88;;;1.60;;
80584;SDS011;70137;56.482;9.154;2024-02-26T12:01:39;3.50;;;1.42;;
80584;SDS011;70137;56.482;9.154;2024-02-26T12:06:47;2.38;;;1.60;;
80584;SDS011;70137;56.482;9.154;2024-02-26T12:09:31;4.57;;;1.48;;
80584;SDS011;70137;56.482;9.154;2024-02-26T12:12:01;5.75;;;1.60;;
80584;SDS011;70137;56.482;9.154;2024-02-26T12:14:28;3.67;;;1.98;;
80584;SDS011;70137;56.482;9.154;2024-02-26T12:16:55;3.28;;;1.75;;
80584;SDS011;70137;56.482;9.154;2024-02-26T12:19:21;5.18;;;1.88;;
80584;SDS011;70137;56.482;9.154;2024-02-26T12:21:48;2.55;;;1.58;;
80584;SDS011;70137;56.482;9.154;2024-02-26T12:24:17;4.60;;;1.55;;
80584;SDS011;70137;56.482;9.154;2024-02-26T12:26:43;3.00;;;1.10;;
80584;SDS011;70137;56.482;9.154;2024-02-26T12:29:08;1.75;;;1.30;;
80584;SDS011;70137;56.482;9.154;2024-02-26T12:31:35;2.80;;;0.88;;
80584;SDS011;70137;56.482;9.154;2024-02-26T12:34:04;0.82;;;0.70;;
80584;SDS011;70137;56.482;9.154;2024-02-26T12:36:30;0.68;;;0.43;;
80584;SDS011;70137;56.482;9.154;2024-02-26T12:38:55;0.73;;;0.38;;
80584;SDS011;70137;56.482;9.154;2024-02-26T12:41:21;0.82;;;0.40;;
80584;SDS011;70137;56.482;9.154;2024-02-26T12:43:47;0.82;;;0.50;;
80584;SDS011;70137;56.482;9.154;2024-02-26T12:46:13;1.65;;;0.52;;
80584;SDS011;70137;56.482;9.154;2024-02-26T12:48:41;0.70;;;0.43;;
80584;SDS011;70137;56.482;9.154;2024-02-26T12:51:08;2.13;;;0.60;;
80584;SDS011;70137;56.482;9.154;2024-02-26T12:53:35;1.45;;;0.50;;
80584;SDS011;70137;56.482;9.154;2024-02-26T12:56:01;0.38;;;0.35;;
80584;SDS011;70137;56.482;9.154;2024-02-26T12:58:28;0.47;;;0.40;;
80584;SDS011;70137;56.482;9.154;2024-02-26T13:00:54;0.68;;;0.57;;
80584;SDS011;70137;56.482;9.154;2024-02-26T13:03:21;0.68;;;0.45;;
80584;SDS011;70137;56.482;9.154;2024-02-26T13:05:47;0.65;;;0.40;;
80584;SDS011;70137;56.482;9.154;2024-02-26T13:08:20;1.50;;;0.52;;
80584;SDS011;70137;56.482;9.154;2024-02-26T13:10:46;0.52;;;0.52;;
80584;SDS011;70137;56.482;9.154;2024-02-26T13:13:14;0.82;;;0.68;;
80584;SDS011;70137;56.482;9.154;2024-02-26T13:15:42;1.63;;;0.63;;
80584;SDS011;70137;56.482;9.154;2024-02-26T13:18:11;0.73;;;0.60;;
80584;SDS011;70137;56.482;9.154;2024-02-26T13:20:38;1.40;;;0.95;;
80584;SDS011;70137;56.482;9.154;2024-02-26T13:23:06;1.77;;;0.90;;
80584;SDS011;70137;56.482;9.154;2024-02-26T13:25:33;3.78;;;1.00;;
80584;SDS011;70137;56.482;9.154;2024-02-26T13:28:16;1.55;;;0.70;;
80584;SDS011;70137;56.482;9.154;2024-02-26T13:30:52;1.90;;;1.00;;
80584;SDS011;70137;56.482;9.154;2024-02-26T13:33:21;3.38;;;1.00;;
80584;SDS011;70137;56.482;9.154;2024-02-26T13:35:47;1.10;;;0.80;;
80584;SDS011;70137;56.482;9.154;2024-02-26T13:38:12;0.60;;;0.60;;
80584;SDS011;70137;56.482;9.154;2024-02-26T13:40:38;2.30;;;0.73;;
80584;SDS011;70137;56.482;9.154;2024-02-26T13:43:07;0.90;;;0.65;;
80584;SDS011;70137;56.482;9.154;2024-02-26T13:45:35;2.55;;;0.70;;
80584;SDS011;70137;56.482;9.154;2024-02-26T13:48:03;1.70;;;0.50;;
80584;SDS011;70137;56.482;9.154;2024-02-26T13:50:32;0.40;;;0.30;;
80584;SDS011;70137;56.482;9.154;2024-02-26T13:52:58;1.48;;;0.40;;
80584;SDS011;70137;56.482;9.154;2024-02-26T13:55:25;1.02;;;0.40;;
80584;SDS011;70137;56.482;9.154;2024-02-26T13:57:53;2.47;;;0.60;;
80584;SDS011;70137;56.482;9.154;2024-02-26T14:00:19;0.50;;;0.50;;
80584;SDS011;70137;56.482;9.154;2024-02-26T14:02:45;1.38;;;0.65;;
80584;SDS011;70137;56.482;9.154;2024-02-26T14:05:11;0.88;;;0.60;;
80584;SDS011;70137;56.482;9.154;2024-02-26T14:07:36;0.88;;;0.40;;
80584;SDS011;70137;56.482;9.154;2024-02-26T14:10:02;1.45;;;0.68;;
80584;SDS011;70137;56.482;9.154;2024-02-26T14:12:27;0.60;;;0.60;;
80584;SDS011;70137;56.482;9.154;2024-02-26T14:14:53;1.92;;;0.77;;
80584;SDS011;70137;56.482;9.154;2024-02-26T14:17:20;0.77;;;0.60;;
80584;SDS011;70137;56.482;9.154;2024-02-26T14:19:46;3.60;;;0.70;;
80584;SDS011;70137;56.482;9.154;2024-02-26T14:22:13;1.65;;;1.10;;
80584;SDS011;70137;56.482;9.154;2024-02-26T14:24:40;2.97;;;0.88;;
80584;SDS011;70137;56.482;9.154;2024-02-26T14:27:07;2.35;;;0.90;;
80584;SDS011;70137;56.482;9.154;2024-02-26T14:29:34;2.38;;;0.50;;
80584;SDS011;70137;56.482;9.154;2024-02-26T14:32:00;1.25;;;0.80;;
80584;SDS011;70137;56.482;9.154;2024-02-26T14:34:26;1.58;;;0.75;;
80584;SDS011;70137;56.482;9.154;2024-02-26T14:36:52;1.83;;;1.00;;
80584;SDS011;70137;56.482;9.154;2024-02-26T14:39:17;3.17;;;1.80;;
80584;SDS011;70137;56.482;9.154;2024-02-26T14:41:42;4.10;;;1.75;;
80584;SDS011;70137;56.482;9.154;2024-02-26T14:44:08;3.58;;;1.35;;
80584;SDS011;70137;56.482;9.154;2024-02-26T14:46:33;1.33;;;0.75;;
80584;SDS011;70137;56.482;9.154;2024-02-26T14:48:59;0.95;;;0.60;;